Airfield :







YOU CAN JOIN US ON...

 
LOGIN :

Register | Disclaimer

   EN    FR    IT 

 









Legend :    VFR   Marginal VFR   IFR   Intensive IFR   Very Intensive IFR
Visi :
Ceiling :
>= 8 km
>= 3000ft
5 to 8 km
1000 to 3000 ft
1500m to 5 km
500 to 1000 ft
800 to 1500m
200 to 500 ft
< 800m
< 200 ft
Symbols :   Thunderstorms  Fog  Heavy snow  Heavy precipitations  Wind > 20 kt






- Airport Elevation : 108 ft
- IATA code : YGP


CYGP - Gaspé

CURRENT METAR :
  • 012200Z 29005KT 230V300 15SM FEW110 16/11 A2978 RMK AC2 SLP088 DENSITY ALT 400FT

EXPIRED METARs :
  • 012139Z 23004KT 180V250 10SM -SHRA SCT050 17/10 A2978 RMK CU4 SLP085 DENSITY ALT 600FT
  • 012100Z 19005KT 170V240 15SM SCT060 18/09 A2975 RMK CU4 SLP077 DENSITY ALT 700FT
  • 012000Z 20005KT 150V230 15SM SCT050 BKN080 19/09 A2974 RMK CU3AC2 SLP072 DENSITY ALT 800FT

TAF TAF CYGP
Valid from the 01 at 20:00 until the 02 at 08:00 UTC


011939Z 0120/0208 21012KT P6SM SCT080
TEMPO 0120/0202 BKN080
BECMG 0200/0202 27005KT RMK NXT FCST BY 020200Z
CZUL FIR / North America



MET'MAP, your aeronautical weather chart ! - Copyright ORBIFLY December 2007 - Disclaimer

ORBIFLY MET'MAP TEAM :

Programming & Development : Alexandra Zaïnal
Concept & original design : Baudouin d'Aumeries
Assistance for programming : Marc-Olivier Méhu
Technical & hardware support : Manuel Goepfert

Contact : metmap@orbifly.com




SOURCES & CREDITS :

   NOAA